createdAt,value
2023-05-22T00:00:00.226Z,998.93
2023-05-22T00:05:00.227Z,998.8
2023-05-22T00:10:00.177Z,998.83
2023-05-22T00:15:00.164Z,998.81
2023-05-22T00:20:00.161Z,998.75
2023-05-22T00:25:00.217Z,998.77
2023-05-22T00:30:00.206Z,998.75
2023-05-22T00:35:00.174Z,998.76
2023-05-22T00:40:00.202Z,998.77
2023-05-22T00:45:00.143Z,998.6
2023-05-22T00:50:00.143Z,998.73
2023-05-22T00:55:00.141Z,998.65
2023-05-22T01:00:00.187Z,998.61
2023-05-22T01:05:00.158Z,998.58
2023-05-22T01:10:00.136Z,998.58
2023-05-22T01:15:00.152Z,998.62
2023-05-22T01:20:00.169Z,998.63
2023-05-22T01:25:00.186Z,998.7
2023-05-22T01:30:00.175Z,998.64
2023-05-22T01:35:00.197Z,998.59
2023-05-22T01:40:00.179Z,998.67
2023-05-22T01:45:00.178Z,998.58
2023-05-22T01:50:00.191Z,998.6
2023-05-22T01:55:00.182Z,998.56
2023-05-22T02:00:00.153Z,998.74
2023-05-22T02:05:00.165Z,998.74
2023-05-22T02:10:00.215Z,998.69
2023-05-22T02:15:00.168Z,998.67
2023-05-22T02:20:00.170Z,998.64
2023-05-22T02:25:00.170Z,998.72
2023-05-22T02:30:00.197Z,998.6
2023-05-22T02:35:00.170Z,998.54
2023-05-22T02:40:00.178Z,998.57
2023-05-22T02:45:00.163Z,998.55
2023-05-22T02:50:00.131Z,998.5
2023-05-22T02:55:00.200Z,998.47
2023-05-22T03:00:00.219Z,998.43
2023-05-22T03:05:00.206Z,998.38
2023-05-22T03:10:00.174Z,998.41
2023-05-22T03:15:00.169Z,998.33
2023-05-22T03:20:00.156Z,998.34
2023-05-22T03:25:00.255Z,998.37
2023-05-22T03:30:00.232Z,998.39
2023-05-22T03:35:00.167Z,998.35
2023-05-22T03:40:00.146Z,998.35
2023-05-22T03:45:00.204Z,998.38
2023-05-22T03:50:00.153Z,998.34
2023-05-22T03:55:00.239Z,998.33
2023-05-22T04:00:00.299Z,998.35
2023-05-22T04:05:00.227Z,998.26
2023-05-22T04:10:00.247Z,998.23
2023-05-22T04:15:00.183Z,998.18
2023-05-22T04:20:00.197Z,998.22
2023-05-22T04:25:00.225Z,998.27
2023-05-22T04:30:00.222Z,998.25
2023-05-22T04:35:00.188Z,998.33
2023-05-22T04:40:00.229Z,998.4
2023-05-22T04:45:00.242Z,998.29
2023-05-22T04:50:00.246Z,998.38
2023-05-22T04:55:01.204Z,998.31
2023-05-22T05:00:00.222Z,998.35
2023-05-22T05:05:00.178Z,998.28
2023-05-22T05:10:00.190Z,998.21
2023-05-22T05:15:00.189Z,998.26
2023-05-22T05:20:00.191Z,998.28
2023-05-22T05:25:00.189Z,998.31
2023-05-22T05:30:00.180Z,998.28
2023-05-22T05:35:00.171Z,998.32
2023-05-22T05:40:00.145Z,998.31
2023-05-22T05:45:00.159Z,998.3
2023-05-22T05:50:00.211Z,998.36
2023-05-22T05:55:00.194Z,998.38
2023-05-22T06:00:00.392Z,998.4
2023-05-22T06:05:00.201Z,998.32
2023-05-22T06:10:00.197Z,998.39
2023-05-22T06:15:00.138Z,998.35
2023-05-22T06:20:00.176Z,998.34
2023-05-22T06:25:00.231Z,998.35
2023-05-22T06:30:00.197Z,998.3
2023-05-22T06:35:00.133Z,998.32
2023-05-22T06:40:00.173Z,998.31
2023-05-22T06:45:00.180Z,998.26
2023-05-22T06:50:00.140Z,998.18
2023-05-22T06:55:00.170Z,998.19
2023-05-22T07:00:00.216Z,998.18
2023-05-22T07:05:00.229Z,998.26
2023-05-22T07:10:00.191Z,998.25
2023-05-22T07:15:00.222Z,998.25
2023-05-22T07:20:00.168Z,998.24
2023-05-22T07:25:00.214Z,998.25
2023-05-22T07:30:00.195Z,998.21
2023-05-22T07:35:00.164Z,998.23
2023-05-22T07:40:00.205Z,998.26
2023-05-22T07:45:00.309Z,998.2
2023-05-22T07:50:00.217Z,998.17
2023-05-22T07:55:00.164Z,998.23
2023-05-22T08:00:00.251Z,998.26
2023-05-22T08:05:00.273Z,998.25
2023-05-22T08:10:00.218Z,998.2
2023-05-22T08:15:00.181Z,998.08
2023-05-22T08:20:00.282Z,998.09
2023-05-22T08:25:00.198Z,998.09
2023-05-22T08:30:00.245Z,998.03
2023-05-22T08:35:00.153Z,998.21
2023-05-22T08:40:00.188Z,998.09
2023-05-22T08:45:00.187Z,998.02
2023-05-22T08:50:00.212Z,997.98
2023-05-22T08:55:00.155Z,997.98
2023-05-22T09:00:00.208Z,998
2023-05-22T09:05:00.145Z,997.87
2023-05-22T09:10:00.222Z,997.81
2023-05-22T09:15:00.150Z,997.84
2023-05-22T09:20:00.238Z,997.76
2023-05-22T09:25:00.366Z,997.74
2023-05-22T09:30:00.177Z,997.67
2023-05-22T09:35:00.172Z,997.61
2023-05-22T09:40:00.218Z,997.6
2023-05-22T09:45:00.283Z,997.58
2023-05-22T09:50:00.236Z,997.63
2023-05-22T09:55:00.174Z,997.77
2023-05-22T10:00:00.232Z,997.63
2023-05-22T10:05:00.375Z,997.61
2023-05-22T10:10:00.188Z,997.61
2023-05-22T10:15:00.190Z,997.53
2023-05-22T10:20:00.170Z,997.51
2023-05-22T10:25:00.277Z,997.39
2023-05-22T10:30:00.228Z,997.29
2023-05-22T10:35:00.185Z,997.27
2023-05-22T10:40:00.230Z,997.35
2023-05-22T10:45:00.262Z,997.27
2023-05-22T10:50:00.165Z,997.28
2023-05-22T10:55:00.173Z,997.18
2023-05-22T11:00:00.193Z,997.15
2023-05-22T11:05:00.255Z,997.2
2023-05-22T11:10:00.204Z,997.16
2023-05-22T11:15:00.193Z,997.08
2023-05-22T11:20:00.305Z,997.16
2023-05-22T11:25:00.304Z,997.1
2023-05-22T11:30:00.194Z,997.21
2023-05-22T11:35:00.136Z,996.94
2023-05-22T11:40:00.206Z,996.98
2023-05-22T11:45:00.302Z,996.98
2023-05-22T11:50:00.145Z,997
2023-05-22T11:55:00.182Z,996.82
2023-05-22T12:00:00.254Z,996.85
2023-05-22T12:05:00.303Z,996.7
2023-05-22T12:10:00.232Z,996.72
2023-05-22T12:15:00.157Z,996.73
2023-05-22T12:20:00.181Z,996.72
2023-05-22T12:25:00.263Z,996.66
2023-05-22T12:30:00.292Z,996.74
2023-05-22T12:35:00.173Z,996.59
2023-05-22T12:40:00.223Z,996.54
2023-05-22T12:45:00.270Z,996.51
2023-05-22T12:50:00.213Z,996.42
2023-05-22T12:55:00.143Z,996.39
2023-05-22T13:00:00.241Z,996.42
2023-05-22T13:05:00.335Z,996.49
2023-05-22T13:10:00.159Z,996.37
2023-05-22T13:15:00.175Z,996.37
2023-05-22T13:20:00.164Z,996.23
2023-05-22T13:25:00.260Z,996.15
2023-05-22T13:30:00.214Z,996.14
2023-05-22T13:35:00.146Z,996.24
2023-05-22T13:40:00.209Z,996.1
2023-05-22T13:45:00.265Z,996.11
2023-05-22T13:50:00.227Z,996.11
2023-05-22T13:55:00.256Z,996.02
2023-05-22T14:00:00.225Z,996.03
2023-05-22T14:05:00.259Z,995.95
2023-05-22T14:10:01.464Z,995.99
2023-05-22T14:15:00.194Z,995.86
2023-05-22T14:20:00.215Z,995.88
2023-05-22T14:25:00.270Z,995.86
2023-05-22T14:30:00.214Z,995.82
2023-05-22T14:35:00.199Z,995.7
2023-05-22T14:40:00.154Z,995.7
2023-05-22T14:45:00.249Z,995.64
2023-05-22T14:50:14.543Z,995.5
2023-05-22T14:55:00.175Z,995.63
2023-05-22T15:00:00.179Z,995.53
2023-05-22T15:05:00.393Z,995.3
2023-05-22T15:10:00.181Z,995.37
2023-05-22T15:15:00.185Z,995.38
2023-05-22T15:20:00.182Z,995.29
2023-05-22T15:25:00.312Z,995.24
2023-05-22T15:30:00.179Z,995.17
2023-05-22T15:35:00.188Z,995.28
2023-05-22T15:40:00.182Z,995.25
2023-05-22T15:45:00.350Z,995.18
2023-05-22T15:50:00.200Z,995.14
2023-05-22T15:55:00.157Z,995.14
2023-05-22T16:00:00.220Z,995.13
2023-05-22T16:05:00.312Z,995.03
2023-05-22T16:10:00.201Z,995.07
2023-05-22T16:15:01.250Z,995.02
2023-05-22T16:20:00.190Z,995.07
2023-05-22T16:25:00.278Z,995.08
2023-05-22T16:30:00.264Z,995.02
2023-05-22T16:35:00.174Z,994.98
2023-05-22T16:40:00.265Z,995.01
2023-05-22T16:45:00.302Z,994.99
2023-05-22T16:50:00.336Z,994.94
2023-05-22T16:55:00.255Z,994.99
2023-05-22T17:00:00.167Z,994.99
2023-05-22T17:05:00.304Z,994.91
2023-05-22T17:10:00.356Z,995.01
2023-05-22T17:15:00.140Z,994.99
2023-05-22T17:20:00.225Z,994.98
2023-05-22T17:25:00.256Z,994.92
2023-05-22T17:30:00.283Z,994.9
2023-05-22T17:35:00.199Z,994.86
2023-05-22T17:40:00.251Z,994.8
2023-05-22T17:45:00.301Z,994.85
2023-05-22T17:50:00.216Z,994.86
2023-05-22T17:55:00.198Z,994.85
2023-05-22T18:00:00.181Z,994.85
2023-05-22T18:05:00.345Z,994.88
2023-05-22T18:10:00.199Z,994.88
2023-05-22T18:15:00.204Z,994.88
2023-05-22T18:20:00.151Z,994.76
2023-05-22T18:25:00.283Z,994.68
2023-05-22T18:30:00.165Z,994.78
2023-05-22T18:35:00.128Z,994.77
2023-05-22T18:40:00.172Z,994.79
2023-05-22T18:45:00.336Z,994.81
2023-05-22T18:50:00.253Z,994.91
2023-05-22T18:55:00.180Z,994.88
2023-05-22T19:00:00.200Z,995.03
2023-05-22T19:05:00.324Z,995.04
2023-05-22T19:10:00.110Z,994.96
2023-05-22T19:15:00.152Z,994.96
2023-05-22T19:20:00.166Z,995.07
2023-05-22T19:25:00.252Z,995.15
2023-05-22T19:30:00.171Z,995.18
2023-05-22T19:35:00.149Z,995.12
2023-05-22T19:40:00.207Z,995.15
2023-05-22T19:45:00.277Z,995.2
2023-05-22T19:50:00.181Z,995.22
2023-05-22T19:55:00.188Z,995.24
2023-05-22T20:00:00.195Z,995.22
2023-05-22T20:05:00.700Z,995.23
2023-05-22T20:10:00.172Z,995.27
2023-05-22T20:15:00.155Z,995.23
2023-05-22T20:20:00.293Z,995.75
2023-05-22T20:25:00.264Z,996.06
2023-05-22T20:30:00.449Z,995.53
2023-05-22T20:35:00.138Z,995.7
2023-05-22T20:40:00.186Z,995.76
2023-05-22T20:45:00.296Z,995.67
2023-05-22T20:50:00.516Z,995.76
2023-05-22T20:55:00.147Z,995.65
2023-05-22T21:00:00.166Z,995.55
2023-05-22T21:05:00.277Z,995.5
2023-05-22T21:10:00.173Z,995.29
2023-05-22T21:15:00.142Z,995.28
2023-05-22T21:20:00.204Z,995.09
2023-05-22T21:25:00.272Z,995.04
2023-05-22T21:30:00.317Z,994.98
2023-05-22T21:35:00.174Z,994.89
2023-05-22T21:40:00.260Z,994.86
2023-05-22T21:45:00.263Z,995.02
2023-05-22T21:50:00.176Z,995.03
2023-05-22T21:55:00.174Z,995.02
2023-05-22T22:00:00.238Z,995.04
2023-05-22T22:05:00.258Z,995.18
2023-05-22T22:10:00.184Z,995.17
2023-05-22T22:15:00.207Z,995.23
2023-05-22T22:20:00.222Z,995.21
2023-05-22T22:25:00.300Z,995.17
2023-05-22T22:30:00.175Z,995.25
2023-05-22T22:35:00.166Z,995.11
2023-05-22T22:40:00.261Z,995.07
2023-05-22T22:45:00.315Z,995.08
2023-05-22T22:50:00.180Z,995.18
2023-05-22T22:55:00.186Z,995.06
2023-05-22T23:00:00.191Z,995.19
2023-05-22T23:05:00.486Z,995.18
2023-05-22T23:10:00.199Z,995.1
2023-05-22T23:15:00.112Z,994.98
2023-05-22T23:20:00.146Z,994.9
2023-05-22T23:25:00.300Z,994.95
2023-05-22T23:30:00.240Z,994.91
2023-05-22T23:35:00.147Z,994.79
2023-05-22T23:40:00.236Z,994.76
2023-05-22T23:45:00.282Z,994.77
2023-05-22T23:50:00.268Z,994.99
2023-05-22T23:55:00.172Z,994.92
